sensor_id;sensor_type;location;lat;lon;timestamp;P1;durP1;ratioP1;P2;durP2;ratioP2
11797;SDS011;5956;51.428;6.682;2023-03-14T00:01:18;5.27;;;2.00;;
11797;SDS011;5956;51.428;6.682;2023-03-14T00:03:45;4.17;;;1.90;;
11797;SDS011;5956;51.428;6.682;2023-03-14T00:06:12;3.13;;;1.87;;
11797;SDS011;5956;51.428;6.682;2023-03-14T00:08:39;7.20;;;2.17;;
11797;SDS011;5956;51.428;6.682;2023-03-14T00:11:06;3.93;;;2.03;;
11797;SDS011;5956;51.428;6.682;2023-03-14T00:13:34;5.83;;;2.57;;
11797;SDS011;5956;51.428;6.682;2023-03-14T00:16:04;4.90;;;2.13;;
11797;SDS011;5956;51.428;6.682;2023-03-14T00:18:31;5.00;;;1.90;;
11797;SDS011;5956;51.428;6.682;2023-03-14T00:20:58;4.10;;;2.30;;
11797;SDS011;5956;51.428;6.682;2023-03-14T00:23:25;3.90;;;1.60;;
11797;SDS011;5956;51.428;6.682;2023-03-14T00:25:52;5.90;;;2.20;;
11797;SDS011;5956;51.428;6.682;2023-03-14T00:28:19;6.37;;;2.77;;
11797;SDS011;5956;51.428;6.682;2023-03-14T00:30:47;5.73;;;2.60;;
11797;SDS011;5956;51.428;6.682;2023-03-14T00:33:13;5.43;;;2.00;;
11797;SDS011;5956;51.428;6.682;2023-03-14T00:35:39;5.80;;;2.20;;
11797;SDS011;5956;51.428;6.682;2023-03-14T00:38:06;6.13;;;2.40;;
11797;SDS011;5956;51.428;6.682;2023-03-14T00:40:32;2.77;;;1.87;;
11797;SDS011;5956;51.428;6.682;2023-03-14T00:42:59;4.50;;;1.73;;
11797;SDS011;5956;51.428;6.682;2023-03-14T00:45:25;3.17;;;1.70;;
11797;SDS011;5956;51.428;6.682;2023-03-14T00:47:53;6.13;;;1.97;;
11797;SDS011;5956;51.428;6.682;2023-03-14T00:50:20;5.80;;;2.47;;
11797;SDS011;5956;51.428;6.682;2023-03-14T00:52:46;5.57;;;1.90;;
11797;SDS011;5956;51.428;6.682;2023-03-14T00:55:13;4.40;;;2.10;;
11797;SDS011;5956;51.428;6.682;2023-03-14T00:57:40;4.70;;;1.97;;
11797;SDS011;5956;51.428;6.682;2023-03-14T01:00:07;2.67;;;1.27;;
11797;SDS011;5956;51.428;6.682;2023-03-14T01:02:36;6.47;;;1.73;;
11797;SDS011;5956;51.428;6.682;2023-03-14T01:05:04;2.93;;;1.60;;
11797;SDS011;5956;51.428;6.682;2023-03-14T01:07:32;3.40;;;1.50;;
11797;SDS011;5956;51.428;6.682;2023-03-14T01:09:59;2.90;;;1.70;;
11797;SDS011;5956;51.428;6.682;2023-03-14T01:12:25;5.53;;;1.90;;
11797;SDS011;5956;51.428;6.682;2023-03-14T01:14:53;5.50;;;1.63;;
11797;SDS011;5956;51.428;6.682;2023-03-14T01:17:19;5.33;;;1.60;;
11797;SDS011;5956;51.428;6.682;2023-03-14T01:19:46;7.13;;;1.57;;
11797;SDS011;5956;51.428;6.682;2023-03-14T01:22:14;4.00;;;1.40;;
11797;SDS011;5956;51.428;6.682;2023-03-14T01:24:40;6.07;;;1.40;;
11797;SDS011;5956;51.428;6.682;2023-03-14T01:27:07;3.70;;;1.53;;
11797;SDS011;5956;51.428;6.682;2023-03-14T01:29:33;3.83;;;1.57;;
11797;SDS011;5956;51.428;6.682;2023-03-14T01:32:00;3.20;;;1.57;;
11797;SDS011;5956;51.428;6.682;2023-03-14T01:34:26;5.80;;;1.97;;
11797;SDS011;5956;51.428;6.682;2023-03-14T01:36:53;8.17;;;2.00;;
11797;SDS011;5956;51.428;6.682;2023-03-14T01:39:21;3.90;;;1.90;;
11797;SDS011;5956;51.428;6.682;2023-03-14T01:41:47;2.37;;;1.63;;
11797;SDS011;5956;51.428;6.682;2023-03-14T01:44:13;5.03;;;1.50;;
11797;SDS011;5956;51.428;6.682;2023-03-14T01:46:40;3.83;;;1.27;;
11797;SDS011;5956;51.428;6.682;2023-03-14T01:49:18;1.90;;;1.40;;
11797;SDS011;5956;51.428;6.682;2023-03-14T01:51:47;3.40;;;1.60;;
11797;SDS011;5956;51.428;6.682;2023-03-14T01:54:16;5.50;;;1.50;;
11797;SDS011;5956;51.428;6.682;2023-03-14T01:56:45;3.60;;;1.57;;
11797;SDS011;5956;51.428;6.682;2023-03-14T01:59:12;5.43;;;1.80;;
11797;SDS011;5956;51.428;6.682;2023-03-14T02:01:39;2.30;;;1.40;;
11797;SDS011;5956;51.428;6.682;2023-03-14T02:04:07;5.20;;;1.63;;
11797;SDS011;5956;51.428;6.682;2023-03-14T02:06:39;2.97;;;1.50;;
11797;SDS011;5956;51.428;6.682;2023-03-14T02:09:07;3.87;;;1.20;;
11797;SDS011;5956;51.428;6.682;2023-03-14T02:11:33;5.80;;;1.60;;
11797;SDS011;5956;51.428;6.682;2023-03-14T02:14:01;5.27;;;1.63;;
11797;SDS011;5956;51.428;6.682;2023-03-14T02:16:28;3.80;;;1.57;;
11797;SDS011;5956;51.428;6.682;2023-03-14T02:18:54;3.10;;;1.30;;
11797;SDS011;5956;51.428;6.682;2023-03-14T02:21:23;4.93;;;1.83;;
11797;SDS011;5956;51.428;6.682;2023-03-14T02:23:51;3.50;;;1.50;;
11797;SDS011;5956;51.428;6.682;2023-03-14T02:26:20;3.37;;;1.90;;
11797;SDS011;5956;51.428;6.682;2023-03-14T02:28:49;8.03;;;1.70;;
11797;SDS011;5956;51.428;6.682;2023-03-14T02:31:16;4.70;;;1.57;;
11797;SDS011;5956;51.428;6.682;2023-03-14T02:33:43;7.90;;;2.00;;
11797;SDS011;5956;51.428;6.682;2023-03-14T02:36:10;5.97;;;1.87;;
11797;SDS011;5956;51.428;6.682;2023-03-14T02:38:39;5.37;;;1.70;;
11797;SDS011;5956;51.428;6.682;2023-03-14T02:41:07;5.07;;;2.20;;
11797;SDS011;5956;51.428;6.682;2023-03-14T02:43:34;4.53;;;1.90;;
11797;SDS011;5956;51.428;6.682;2023-03-14T02:46:02;4.27;;;1.90;;
11797;SDS011;5956;51.428;6.682;2023-03-14T02:48:31;5.37;;;2.03;;
11797;SDS011;5956;51.428;6.682;2023-03-14T02:50:59;4.80;;;1.97;;
11797;SDS011;5956;51.428;6.682;2023-03-14T02:53:27;7.33;;;1.90;;
11797;SDS011;5956;51.428;6.682;2023-03-14T02:55:54;8.13;;;2.03;;
11797;SDS011;5956;51.428;6.682;2023-03-14T02:58:21;6.97;;;2.13;;
11797;SDS011;5956;51.428;6.682;2023-03-14T03:00:47;9.13;;;2.30;;
11797;SDS011;5956;51.428;6.682;2023-03-14T03:03:15;6.10;;;2.23;;
11797;SDS011;5956;51.428;6.682;2023-03-14T03:05:41;5.30;;;2.20;;
11797;SDS011;5956;51.428;6.682;2023-03-14T03:08:08;6.90;;;2.20;;
11797;SDS011;5956;51.428;6.682;2023-03-14T03:10:35;7.70;;;2.67;;
11797;SDS011;5956;51.428;6.682;2023-03-14T03:13:02;7.83;;;1.80;;
11797;SDS011;5956;51.428;6.682;2023-03-14T03:15:28;5.93;;;2.30;;
11797;SDS011;5956;51.428;6.682;2023-03-14T03:17:55;5.97;;;2.27;;
11797;SDS011;5956;51.428;6.682;2023-03-14T03:20:23;6.00;;;2.47;;
11797;SDS011;5956;51.428;6.682;2023-03-14T03:22:49;3.70;;;1.90;;
11797;SDS011;5956;51.428;6.682;2023-03-14T03:25:16;8.27;;;2.60;;
11797;SDS011;5956;51.428;6.682;2023-03-14T03:27:42;7.53;;;2.10;;
11797;SDS011;5956;51.428;6.682;2023-03-14T03:30:09;4.80;;;2.13;;
11797;SDS011;5956;51.428;6.682;2023-03-14T03:32:36;3.43;;;1.73;;
11797;SDS011;5956;51.428;6.682;2023-03-14T03:35:03;4.73;;;1.97;;
11797;SDS011;5956;51.428;6.682;2023-03-14T03:37:31;5.87;;;2.70;;
11797;SDS011;5956;51.428;6.682;2023-03-14T03:39:57;5.67;;;1.70;;
11797;SDS011;5956;51.428;6.682;2023-03-14T03:42:26;4.30;;;2.10;;
11797;SDS011;5956;51.428;6.682;2023-03-14T03:44:52;10.33;;;2.00;;
11797;SDS011;5956;51.428;6.682;2023-03-14T03:47:19;8.27;;;1.90;;
11797;SDS011;5956;51.428;6.682;2023-03-14T03:49:45;7.77;;;2.20;;
11797;SDS011;5956;51.428;6.682;2023-03-14T03:52:12;5.17;;;2.10;;
11797;SDS011;5956;51.428;6.682;2023-03-14T03:54:39;5.30;;;2.07;;
11797;SDS011;5956;51.428;6.682;2023-03-14T03:57:06;9.07;;;2.00;;
11797;SDS011;5956;51.428;6.682;2023-03-14T03:59:32;4.47;;;1.83;;
11797;SDS011;5956;51.428;6.682;2023-03-14T04:01:59;4.57;;;1.73;;
11797;SDS011;5956;51.428;6.682;2023-03-14T04:04:25;6.67;;;1.90;;
11797;SDS011;5956;51.428;6.682;2023-03-14T04:06:52;3.50;;;2.13;;
11797;SDS011;5956;51.428;6.682;2023-03-14T04:09:18;5.93;;;1.67;;
11797;SDS011;5956;51.428;6.682;2023-03-14T04:11:46;4.70;;;1.97;;
11797;SDS011;5956;51.428;6.682;2023-03-14T04:14:13;5.60;;;2.03;;
11797;SDS011;5956;51.428;6.682;2023-03-14T04:16:39;4.00;;;2.23;;
11797;SDS011;5956;51.428;6.682;2023-03-14T04:19:06;4.57;;;1.63;;
11797;SDS011;5956;51.428;6.682;2023-03-14T04:21:32;6.73;;;2.10;;
11797;SDS011;5956;51.428;6.682;2023-03-14T04:23:59;3.27;;;1.93;;
11797;SDS011;5956;51.428;6.682;2023-03-14T04:26:25;6.30;;;1.80;;
11797;SDS011;5956;51.428;6.682;2023-03-14T04:28:53;5.10;;;1.90;;
11797;SDS011;5956;51.428;6.682;2023-03-14T04:31:20;2.60;;;1.30;;
11797;SDS011;5956;51.428;6.682;2023-03-14T04:33:47;3.97;;;1.50;;
11797;SDS011;5956;51.428;6.682;2023-03-14T04:36:13;4.47;;;1.20;;
11797;SDS011;5956;51.428;6.682;2023-03-14T04:38:40;4.30;;;1.53;;
11797;SDS011;5956;51.428;6.682;2023-03-14T04:41:06;2.43;;;1.50;;
11797;SDS011;5956;51.428;6.682;2023-03-14T04:43:33;2.70;;;1.20;;
11797;SDS011;5956;51.428;6.682;2023-03-14T04:46:01;3.20;;;1.53;;
11797;SDS011;5956;51.428;6.682;2023-03-14T04:48:28;3.97;;;1.40;;
11797;SDS011;5956;51.428;6.682;2023-03-14T04:50:54;2.20;;;1.30;;
11797;SDS011;5956;51.428;6.682;2023-03-14T04:53:21;4.17;;;1.20;;
11797;SDS011;5956;51.428;6.682;2023-03-14T04:55:48;3.27;;;1.10;;
11797;SDS011;5956;51.428;6.682;2023-03-14T04:58:14;1.83;;;1.03;;
11797;SDS011;5956;51.428;6.682;2023-03-14T05:00:41;2.43;;;1.17;;
11797;SDS011;5956;51.428;6.682;2023-03-14T05:03:09;3.50;;;1.13;;
11797;SDS011;5956;51.428;6.682;2023-03-14T05:05:35;3.20;;;1.23;;
11797;SDS011;5956;51.428;6.682;2023-03-14T05:08:01;6.20;;;1.40;;
11797;SDS011;5956;51.428;6.682;2023-03-14T05:10:28;1.80;;;0.70;;
11797;SDS011;5956;51.428;6.682;2023-03-14T05:12:54;2.17;;;1.03;;
11797;SDS011;5956;51.428;6.682;2023-03-14T05:15:21;5.07;;;1.50;;
11797;SDS011;5956;51.428;6.682;2023-03-14T05:17:47;3.70;;;1.43;;
11797;SDS011;5956;51.428;6.682;2023-03-14T05:20:15;4.23;;;1.10;;
11797;SDS011;5956;51.428;6.682;2023-03-14T05:22:42;2.53;;;0.70;;
11797;SDS011;5956;51.428;6.682;2023-03-14T05:25:08;2.13;;;1.23;;
11797;SDS011;5956;51.428;6.682;2023-03-14T05:27:35;1.60;;;1.10;;
11797;SDS011;5956;51.428;6.682;2023-03-14T05:30:02;2.67;;;1.10;;
11797;SDS011;5956;51.428;6.682;2023-03-14T05:32:28;2.73;;;1.00;;
11797;SDS011;5956;51.428;6.682;2023-03-14T05:34:55;1.67;;;1.10;;
11797;SDS011;5956;51.428;6.682;2023-03-14T05:37:25;3.33;;;1.00;;
11797;SDS011;5956;51.428;6.682;2023-03-14T05:39:51;2.60;;;1.50;;
11797;SDS011;5956;51.428;6.682;2023-03-14T05:42:18;3.33;;;1.00;;
11797;SDS011;5956;51.428;6.682;2023-03-14T05:44:44;1.83;;;1.20;;
11797;SDS011;5956;51.428;6.682;2023-03-14T05:47:11;1.63;;;1.53;;
11797;SDS011;5956;51.428;6.682;2023-03-14T05:49:37;2.30;;;1.90;;
11797;SDS011;5956;51.428;6.682;2023-03-14T05:52:04;3.27;;;2.10;;
11797;SDS011;5956;51.428;6.682;2023-03-14T05:54:32;2.57;;;1.90;;
11797;SDS011;5956;51.428;6.682;2023-03-14T05:56:58;2.40;;;2.23;;
11797;SDS011;5956;51.428;6.682;2023-03-14T05:59:25;2.47;;;1.80;;
11797;SDS011;5956;51.428;6.682;2023-03-14T06:01:52;2.57;;;1.60;;
11797;SDS011;5956;51.428;6.682;2023-03-14T06:04:18;4.23;;;2.00;;
11797;SDS011;5956;51.428;6.682;2023-03-14T06:06:45;2.73;;;1.50;;
11797;SDS011;5956;51.428;6.682;2023-03-14T06:09:11;5.70;;;2.00;;
11797;SDS011;5956;51.428;6.682;2023-03-14T06:11:39;2.43;;;1.83;;
11797;SDS011;5956;51.428;6.682;2023-03-14T06:14:06;2.37;;;1.90;;
11797;SDS011;5956;51.428;6.682;2023-03-14T06:16:32;2.93;;;1.90;;
11797;SDS011;5956;51.428;6.682;2023-03-14T06:18:59;2.50;;;2.23;;
11797;SDS011;5956;51.428;6.682;2023-03-14T06:21:25;3.05;;;2.30;;
11797;SDS011;5956;51.428;6.682;2023-03-14T06:23:52;3.17;;;2.63;;
11797;SDS011;5956;51.428;6.682;2023-03-14T06:26:18;2.07;;;1.33;;
11797;SDS011;5956;51.428;6.682;2023-03-14T06:28:46;0.77;;;0.77;;
11797;SDS011;5956;51.428;6.682;2023-03-14T06:31:12;1.63;;;1.27;;
11797;SDS011;5956;51.428;6.682;2023-03-14T06:33:39;0.70;;;0.70;;
11797;SDS011;5956;51.428;6.682;2023-03-14T06:36:06;0.57;;;0.57;;
11797;SDS011;5956;51.428;6.682;2023-03-14T06:38:32;1.70;;;0.70;;
11797;SDS011;5956;51.428;6.682;2023-03-14T06:41:02;0.87;;;0.60;;
11797;SDS011;5956;51.428;6.682;2023-03-14T06:43:29;2.33;;;0.90;;
11797;SDS011;5956;51.428;6.682;2023-03-14T06:45:57;0.80;;;0.80;;
11797;SDS011;5956;51.428;6.682;2023-03-14T06:48:23;1.03;;;0.60;;
11797;SDS011;5956;51.428;6.682;2023-03-14T06:50:50;0.77;;;0.70;;
11797;SDS011;5956;51.428;6.682;2023-03-14T06:53:16;0.60;;;0.60;;
11797;SDS011;5956;51.428;6.682;2023-03-14T06:55:43;1.90;;;0.80;;
11797;SDS011;5956;51.428;6.682;2023-03-14T06:58:10;2.60;;;0.90;;
11797;SDS011;5956;51.428;6.682;2023-03-14T07:00:37;1.00;;;0.90;;
11797;SDS011;5956;51.428;6.682;2023-03-14T07:03:05;3.13;;;2.83;;
11797;SDS011;5956;51.428;6.682;2023-03-14T07:05:32;1.07;;;0.80;;
11797;SDS011;5956;51.428;6.682;2023-03-14T07:07:58;1.07;;;1.00;;
11797;SDS011;5956;51.428;6.682;2023-03-14T07:10:26;1.87;;;0.77;;
11797;SDS011;5956;51.428;6.682;2023-03-14T07:12:52;0.87;;;0.87;;
11797;SDS011;5956;51.428;6.682;2023-03-14T07:15:19;0.80;;;0.77;;
11797;SDS011;5956;51.428;6.682;2023-03-14T07:17:45;1.40;;;0.93;;
11797;SDS011;5956;51.428;6.682;2023-03-14T07:20:14;1.13;;;0.90;;
11797;SDS011;5956;51.428;6.682;2023-03-14T07:22:41;1.13;;;1.10;;
11797;SDS011;5956;51.428;6.682;2023-03-14T07:25:08;1.10;;;0.90;;
11797;SDS011;5956;51.428;6.682;2023-03-14T07:27:37;0.90;;;0.90;;
11797;SDS011;5956;51.428;6.682;2023-03-14T07:30:04;1.80;;;0.67;;
11797;SDS011;5956;51.428;6.682;2023-03-14T07:32:30;2.23;;;1.10;;
11797;SDS011;5956;51.428;6.682;2023-03-14T07:34:57;1.20;;;1.10;;
11797;SDS011;5956;51.428;6.682;2023-03-14T07:37:25;1.30;;;1.03;;
11797;SDS011;5956;51.428;6.682;2023-03-14T07:39:51;1.40;;;1.30;;
11797;SDS011;5956;51.428;6.682;2023-03-14T07:42:18;1.80;;;1.10;;
11797;SDS011;5956;51.428;6.682;2023-03-14T07:44:44;1.50;;;1.40;;
11797;SDS011;5956;51.428;6.682;2023-03-14T07:47:11;2.50;;;1.70;;
11797;SDS011;5956;51.428;6.682;2023-03-14T07:49:37;2.80;;;1.43;;
11797;SDS011;5956;51.428;6.682;2023-03-14T07:52:04;2.37;;;1.40;;
11797;SDS011;5956;51.428;6.682;2023-03-14T07:54:32;1.30;;;1.30;;
11797;SDS011;5956;51.428;6.682;2023-03-14T07:56:58;1.70;;;1.20;;
11797;SDS011;5956;51.428;6.682;2023-03-14T07:59:25;1.20;;;1.20;;
11797;SDS011;5956;51.428;6.682;2023-03-14T08:01:52;1.53;;;1.43;;
11797;SDS011;5956;51.428;6.682;2023-03-14T08:04:19;1.23;;;1.20;;
11797;SDS011;5956;51.428;6.682;2023-03-14T08:06:45;1.47;;;1.40;;
11797;SDS011;5956;51.428;6.682;2023-03-14T08:09:12;1.50;;;1.40;;
11797;SDS011;5956;51.428;6.682;2023-03-14T08:11:40;1.53;;;1.47;;
11797;SDS011;5956;51.428;6.682;2023-03-14T08:14:06;1.40;;;1.40;;
11797;SDS011;5956;51.428;6.682;2023-03-14T08:16:33;1.70;;;1.60;;
11797;SDS011;5956;51.428;6.682;2023-03-14T08:18:59;1.83;;;1.73;;
11797;SDS011;5956;51.428;6.682;2023-03-14T08:21:26;2.53;;;1.60;;
11797;SDS011;5956;51.428;6.682;2023-03-14T08:23:52;1.80;;;1.70;;
11797;SDS011;5956;51.428;6.682;2023-03-14T08:26:19;3.27;;;1.60;;
11797;SDS011;5956;51.428;6.682;2023-03-14T08:28:47;1.37;;;1.37;;
11797;SDS011;5956;51.428;6.682;2023-03-14T08:31:13;1.40;;;1.30;;
11797;SDS011;5956;51.428;6.682;2023-03-14T08:33:39;1.80;;;1.70;;
11797;SDS011;5956;51.428;6.682;2023-03-14T08:36:06;2.53;;;1.57;;
11797;SDS011;5956;51.428;6.682;2023-03-14T08:38:33;1.70;;;1.60;;
11797;SDS011;5956;51.428;6.682;2023-03-14T08:41:00;2.10;;;1.60;;
11797;SDS011;5956;51.428;6.682;2023-03-14T08:43:27;1.50;;;1.40;;
11797;SDS011;5956;51.428;6.682;2023-03-14T08:45:58;4.10;;;1.53;;
11797;SDS011;5956;51.428;6.682;2023-03-14T08:48:24;1.13;;;1.13;;
11797;SDS011;5956;51.428;6.682;2023-03-14T08:50:51;1.20;;;1.10;;
11797;SDS011;5956;51.428;6.682;2023-03-14T08:53:17;1.30;;;1.20;;
11797;SDS011;5956;51.428;6.682;2023-03-14T08:55:45;1.13;;;1.10;;
11797;SDS011;5956;51.428;6.682;2023-03-14T08:58:12;1.27;;;1.20;;
11797;SDS011;5956;51.428;6.682;2023-03-14T09:00:39;1.53;;;1.13;;
11797;SDS011;5956;51.428;6.682;2023-03-14T09:03:06;1.07;;;0.90;;
11797;SDS011;5956;51.428;6.682;2023-03-14T09:05:33;0.90;;;0.90;;
11797;SDS011;5956;51.428;6.682;2023-03-14T09:08:00;1.47;;;0.73;;
11797;SDS011;5956;51.428;6.682;2023-03-14T09:10:27;0.50;;;0.50;;
11797;SDS011;5956;51.428;6.682;2023-03-14T09:12:53;0.50;;;0.40;;
11797;SDS011;5956;51.428;6.682;2023-03-14T09:15:20;0.97;;;0.40;;
11797;SDS011;5956;51.428;6.682;2023-03-14T09:17:46;2.30;;;2.10;;
11797;SDS011;5956;51.428;6.682;2023-03-14T09:20:14;0.67;;;0.67;;
11797;SDS011;5956;51.428;6.682;2023-03-14T09:22:41;0.50;;;0.50;;
11797;SDS011;5956;51.428;6.682;2023-03-14T09:25:07;1.23;;;0.50;;
11797;SDS011;5956;51.428;6.682;2023-03-14T09:27:34;0.60;;;0.60;;
11797;SDS011;5956;51.428;6.682;2023-03-14T09:30:01;1.00;;;0.73;;
11797;SDS011;5956;51.428;6.682;2023-03-14T09:32:27;0.90;;;0.73;;
11797;SDS011;5956;51.428;6.682;2023-03-14T09:34:54;0.60;;;0.60;;
11797;SDS011;5956;51.428;6.682;2023-03-14T09:37:22;1.07;;;0.97;;
11797;SDS011;5956;51.428;6.682;2023-03-14T09:39:48;1.57;;;1.00;;
11797;SDS011;5956;51.428;6.682;2023-03-14T09:42:16;1.30;;;1.20;;
11797;SDS011;5956;51.428;6.682;2023-03-14T09:44:45;1.40;;;1.30;;
11797;SDS011;5956;51.428;6.682;2023-03-14T09:47:16;1.70;;;1.50;;
11797;SDS011;5956;51.428;6.682;2023-03-14T09:49:45;1.30;;;1.30;;
11797;SDS011;5956;51.428;6.682;2023-03-14T09:52:12;1.53;;;1.40;;
11797;SDS011;5956;51.428;6.682;2023-03-14T09:54:42;1.87;;;1.77;;
11797;SDS011;5956;51.428;6.682;2023-03-14T09:57:11;2.23;;;1.63;;
11797;SDS011;5956;51.428;6.682;2023-03-14T09:59:38;1.93;;;1.70;;
11797;SDS011;5956;51.428;6.682;2023-03-14T10:02:11;2.10;;;1.50;;
11797;SDS011;5956;51.428;6.682;2023-03-14T10:04:38;1.60;;;1.50;;
11797;SDS011;5956;51.428;6.682;2023-03-14T10:07:09;1.70;;;1.60;;
11797;SDS011;5956;51.428;6.682;2023-03-14T10:09:42;2.90;;;1.80;;
11797;SDS011;5956;51.428;6.682;2023-03-14T10:12:09;2.43;;;1.70;;
11797;SDS011;5956;51.428;6.682;2023-03-14T10:14:37;1.37;;;1.37;;
11797;SDS011;5956;51.428;6.682;2023-03-14T10:17:07;1.63;;;1.53;;
11797;SDS011;5956;51.428;6.682;2023-03-14T10:19:35;1.70;;;1.60;;
11797;SDS011;5956;51.428;6.682;2023-03-14T10:22:02;2.60;;;1.90;;
11797;SDS011;5956;51.428;6.682;2023-03-14T10:24:30;1.60;;;1.50;;
11797;SDS011;5956;51.428;6.682;2023-03-14T10:26:59;2.70;;;1.57;;
11797;SDS011;5956;51.428;6.682;2023-03-14T10:29:28;0.97;;;0.93;;
11797;SDS011;5956;51.428;6.682;2023-03-14T10:31:55;2.03;;;0.87;;
11797;SDS011;5956;51.428;6.682;2023-03-14T10:34:24;1.73;;;1.00;;
11797;SDS011;5956;51.428;6.682;2023-03-14T10:36:55;1.10;;;1.00;;
11797;SDS011;5956;51.428;6.682;2023-03-14T10:39:24;1.53;;;0.87;;
11797;SDS011;5956;51.428;6.682;2023-03-14T10:41:52;1.30;;;0.80;;
11797;SDS011;5956;51.428;6.682;2023-03-14T10:44:22;1.50;;;0.90;;
11797;SDS011;5956;51.428;6.682;2023-03-14T10:46:55;2.20;;;1.00;;
11797;SDS011;5956;51.428;6.682;2023-03-14T10:49:26;2.80;;;1.10;;
11797;SDS011;5956;51.428;6.682;2023-03-14T10:51:53;1.70;;;1.10;;
11797;SDS011;5956;51.428;6.682;2023-03-14T10:54:20;2.10;;;1.10;;
11797;SDS011;5956;51.428;6.682;2023-03-14T10:56:55;1.60;;;1.10;;
11797;SDS011;5956;51.428;6.682;2023-03-14T10:59:23;2.13;;;1.00;;
11797;SDS011;5956;51.428;6.682;2023-03-14T11:01:51;2.17;;;1.10;;
11797;SDS011;5956;51.428;6.682;2023-03-14T11:04:26;0.97;;;0.80;;
11797;SDS011;5956;51.428;6.682;2023-03-14T11:06:59;0.97;;;0.97;;
11797;SDS011;5956;51.428;6.682;2023-03-14T11:09:29;1.97;;;1.27;;
11797;SDS011;5956;51.428;6.682;2023-03-14T11:11:59;2.30;;;0.90;;
11797;SDS011;5956;51.428;6.682;2023-03-14T11:14:31;1.07;;;0.90;;
11797;SDS011;5956;51.428;6.682;2023-03-14T11:17:01;1.77;;;0.80;;
11797;SDS011;5956;51.428;6.682;2023-03-14T11:19:33;1.70;;;1.00;;
11797;SDS011;5956;51.428;6.682;2023-03-14T11:22:04;3.00;;;1.00;;
11797;SDS011;5956;51.428;6.682;2023-03-14T11:24:35;2.37;;;1.00;;
11797;SDS011;5956;51.428;6.682;2023-03-14T11:27:06;1.40;;;1.13;;
11797;SDS011;5956;51.428;6.682;2023-03-14T11:29:39;1.43;;;1.23;;
11797;SDS011;5956;51.428;6.682;2023-03-14T11:32:10;1.23;;;0.97;;
11797;SDS011;5956;51.428;6.682;2023-03-14T11:34:39;1.57;;;1.10;;
11797;SDS011;5956;51.428;6.682;2023-03-14T11:37:11;1.93;;;1.23;;
11797;SDS011;5956;51.428;6.682;2023-03-14T11:39:41;2.70;;;2.10;;
11797;SDS011;5956;51.428;6.682;2023-03-14T11:42:11;2.37;;;1.97;;
11797;SDS011;5956;51.428;6.682;2023-03-14T11:44:40;4.60;;;1.30;;
11797;SDS011;5956;51.428;6.682;2023-03-14T11:47:07;1.80;;;0.83;;
11797;SDS011;5956;51.428;6.682;2023-03-14T11:49:36;3.27;;;1.13;;
11797;SDS011;5956;51.428;6.682;2023-03-14T11:52:05;4.03;;;1.00;;
11797;SDS011;5956;51.428;6.682;2023-03-14T11:54:34;1.30;;;1.20;;
11797;SDS011;5956;51.428;6.682;2023-03-14T11:57:02;3.73;;;1.30;;
11797;SDS011;5956;51.428;6.682;2023-03-14T11:59:31;3.90;;;1.40;;
11797;SDS011;5956;51.428;6.682;2023-03-14T12:02:02;3.53;;;1.20;;
11797;SDS011;5956;51.428;6.682;2023-03-14T12:07:16;3.67;;;1.53;;
11797;SDS011;5956;51.428;6.682;2023-03-14T12:09:44;3.80;;;1.70;;
11797;SDS011;5956;51.428;6.682;2023-03-14T12:12:12;4.27;;;1.70;;
11797;SDS011;5956;51.428;6.682;2023-03-14T12:14:43;4.67;;;1.73;;
11797;SDS011;5956;51.428;6.682;2023-03-14T12:17:19;3.57;;;1.77;;
11797;SDS011;5956;51.428;6.682;2023-03-14T12:19:46;4.00;;;1.60;;
11797;SDS011;5956;51.428;6.682;2023-03-14T12:22:17;6.03;;;1.97;;
11797;SDS011;5956;51.428;6.682;2023-03-14T12:24:45;7.00;;;2.00;;
11797;SDS011;5956;51.428;6.682;2023-03-14T12:27:13;4.13;;;1.67;;
11797;SDS011;5956;51.428;6.682;2023-03-14T12:30:00;8.03;;;5.33;;
11797;SDS011;5956;51.428;6.682;2023-03-14T12:32:28;6.70;;;2.37;;
11797;SDS011;5956;51.428;6.682;2023-03-14T12:34:57;5.20;;;1.50;;
11797;SDS011;5956;51.428;6.682;2023-03-14T12:37:33;8.77;;;2.23;;
11797;SDS011;5956;51.428;6.682;2023-03-14T12:40:13;9.17;;;2.70;;
11797;SDS011;5956;51.428;6.682;2023-03-14T12:42:51;12.33;;;2.90;;
11797;SDS011;5956;51.428;6.682;2023-03-14T12:45:24;6.40;;;2.30;;
11797;SDS011;5956;51.428;6.682;2023-03-14T12:47:56;15.03;;;3.20;;
11797;SDS011;5956;51.428;6.682;2023-03-14T12:50:28;9.43;;;3.10;;
11797;SDS011;5956;51.428;6.682;2023-03-14T12:53:02;10.93;;;3.10;;
11797;SDS011;5956;51.428;6.682;2023-03-14T12:55:32;8.93;;;2.87;;
11797;SDS011;5956;51.428;6.682;2023-03-14T12:58:01;9.20;;;3.13;;
11797;SDS011;5956;51.428;6.682;2023-03-14T13:00:31;9.60;;;3.53;;
11797;SDS011;5956;51.428;6.682;2023-03-14T13:03:01;10.53;;;3.50;;
11797;SDS011;5956;51.428;6.682;2023-03-14T13:05:40;11.87;;;3.27;;
11797;SDS011;5956;51.428;6.682;2023-03-14T13:08:26;14.50;;;3.63;;
11797;SDS011;5956;51.428;6.682;2023-03-14T13:10:58;14.97;;;5.77;;
11797;SDS011;5956;51.428;6.682;2023-03-14T13:13:26;9.50;;;2.77;;
11797;SDS011;5956;51.428;6.682;2023-03-14T13:15:54;8.30;;;3.00;;
11797;SDS011;5956;51.428;6.682;2023-03-14T13:18:26;12.03;;;3.27;;
11797;SDS011;5956;51.428;6.682;2023-03-14T13:20:54;13.07;;;2.90;;
11797;SDS011;5956;51.428;6.682;2023-03-14T13:23:21;14.33;;;3.40;;
11797;SDS011;5956;51.428;6.682;2023-03-14T13:25:48;7.67;;;2.70;;
11797;SDS011;5956;51.428;6.682;2023-03-14T13:28:15;4.63;;;2.77;;
11797;SDS011;5956;51.428;6.682;2023-03-14T13:30:42;16.30;;;3.00;;
11797;SDS011;5956;51.428;6.682;2023-03-14T13:33:13;13.43;;;3.67;;
11797;SDS011;5956;51.428;6.682;2023-03-14T13:35:42;13.73;;;3.50;;
11797;SDS011;5956;51.428;6.682;2023-03-14T13:38:14;10.97;;;3.33;;
11797;SDS011;5956;51.428;6.682;2023-03-14T13:40:43;11.43;;;3.27;;
11797;SDS011;5956;51.428;6.682;2023-03-14T13:43:20;16.57;;;4.00;;
11797;SDS011;5956;51.428;6.682;2023-03-14T13:45:51;15.73;;;3.50;;
11797;SDS011;5956;51.428;6.682;2023-03-14T13:48:18;11.57;;;3.33;;
11797;SDS011;5956;51.428;6.682;2023-03-14T13:50:56;4.87;;;2.20;;
11797;SDS011;5956;51.428;6.682;2023-03-14T13:53:25;8.27;;;2.40;;
11797;SDS011;5956;51.428;6.682;2023-03-14T13:55:51;4.63;;;2.10;;
11797;SDS011;5956;51.428;6.682;2023-03-14T13:58:26;4.70;;;1.90;;
11797;SDS011;5956;51.428;6.682;2023-03-14T14:00:57;3.33;;;2.10;;
11797;SDS011;5956;51.428;6.682;2023-03-14T14:03:24;10.73;;;4.43;;
11797;SDS011;5956;51.428;6.682;2023-03-14T14:05:51;6.47;;;3.17;;
11797;SDS011;5956;51.428;6.682;2023-03-14T14:08:19;7.80;;;2.78;;
11797;SDS011;5956;51.428;6.682;2023-03-14T14:10:45;6.90;;;2.60;;
11797;SDS011;5956;51.428;6.682;2023-03-14T14:13:14;5.65;;;2.20;;
11797;SDS011;5956;51.428;6.682;2023-03-14T14:15:44;6.53;;;2.22;;
11797;SDS011;5956;51.428;6.682;2023-03-14T14:18:12;3.95;;;1.80;;
11797;SDS011;5956;51.428;6.682;2023-03-14T14:20:41;4.53;;;2.30;;
11797;SDS011;5956;51.428;6.682;2023-03-14T14:23:09;7.60;;;3.03;;
11797;SDS011;5956;51.428;6.682;2023-03-14T14:25:38;7.65;;;2.65;;
11797;SDS011;5956;51.428;6.682;2023-03-14T14:28:14;5.30;;;2.58;;
11797;SDS011;5956;51.428;6.682;2023-03-14T14:30:41;5.45;;;2.40;;
11797;SDS011;5956;51.428;6.682;2023-03-14T14:33:17;5.57;;;2.40;;
11797;SDS011;5956;51.428;6.682;2023-03-14T14:35:48;6.05;;;2.22;;
11797;SDS011;5956;51.428;6.682;2023-03-14T14:38:16;4.47;;;2.00;;
11797;SDS011;5956;51.428;6.682;2023-03-14T14:40:47;6.13;;;1.92;;
11797;SDS011;5956;51.428;6.682;2023-03-14T14:43:15;4.95;;;2.10;;
11797;SDS011;5956;51.428;6.682;2023-03-14T14:45:43;3.78;;;2.22;;
11797;SDS011;5956;51.428;6.682;2023-03-14T14:48:21;6.47;;;2.15;;
11797;SDS011;5956;51.428;6.682;2023-03-14T14:50:49;8.25;;;2.55;;
11797;SDS011;5956;51.428;6.682;2023-03-14T14:53:21;5.38;;;1.98;;
11797;SDS011;5956;51.428;6.682;2023-03-14T14:55:51;5.40;;;2.50;;
11797;SDS011;5956;51.428;6.682;2023-03-14T14:58:18;7.13;;;2.10;;
11797;SDS011;5956;51.428;6.682;2023-03-14T15:00:49;7.40;;;2.20;;
11797;SDS011;5956;51.428;6.682;2023-03-14T15:03:17;3.90;;;1.90;;
11797;SDS011;5956;51.428;6.682;2023-03-14T15:05:44;5.13;;;2.43;;
11797;SDS011;5956;51.428;6.682;2023-03-14T15:08:11;5.23;;;2.17;;